sensor_id;sensor_type;location;lat;lon;timestamp;noise_LAeq;noise_LA_min;noise_LA_max;noise_LA01;noise_LA95
67322;Laerm;57666;51.436;5.978;2023-06-14T00:00:22;45.40;42.70;52.61;;
67322;Laerm;57666;51.436;5.978;2023-06-14T00:00:45;45.01;43.03;47.18;;
67322;Laerm;57666;51.436;5.978;2023-06-14T00:01:02;45.06;42.20;47.28;;
67322;Laerm;57666;51.436;5.978;2023-06-14T00:01:18;44.73;42.66;46.13;;
67322;Laerm;57666;51.436;5.978;2023-06-14T00:02:41;45.52;43.63;47.71;;
67322;Laerm;57666;51.436;5.978;2023-06-14T00:03:19;45.05;43.04;47.33;;
67322;Laerm;57666;51.436;5.978;2023-06-14T00:03:54;57.29;43.87;67.29;;
67322;Laerm;57666;51.436;5.978;2023-06-14T00:04:49;55.42;43.55;68.22;;
67322;Laerm;57666;51.436;5.978;2023-06-14T00:05:20;46.87;43.59;54.24;;
67322;Laerm;57666;51.436;5.978;2023-06-14T00:05:35;45.31;43.35;47.22;;
67322;Laerm;57666;51.436;5.978;2023-06-14T00:07:20;45.06;42.41;47.26;;
67322;Laerm;57666;51.436;5.978;2023-06-14T00:07:41;55.66;43.41;67.18;;
67322;Laerm;57666;51.436;5.978;2023-06-14T00:08:23;56.05;43.44;66.72;;
67322;Laerm;57666;51.436;5.978;2023-06-14T00:09:00;45.12;43.02;47.13;;
67322;Laerm;57666;51.436;5.978;2023-06-14T00:09:23;44.96;43.22;46.82;;
67322;Laerm;57666;51.436;5.978;2023-06-14T00:09:43;45.17;42.82;47.57;;
67322;Laerm;57666;51.436;5.978;2023-06-14T00:10:05;45.21;43.39;47.35;;
67322;Laerm;57666;51.436;5.978;2023-06-14T00:10:20;45.16;42.85;55.12;;
67322;Laerm;57666;51.436;5.978;2023-06-14T00:10:34;44.97;42.67;46.81;;
67322;Laerm;57666;51.436;5.978;2023-06-14T00:11:11;44.93;42.83;47.12;;
67322;Laerm;57666;51.436;5.978;2023-06-14T00:11:32;45.25;42.90;47.32;;
67322;Laerm;57666;51.436;5.978;2023-06-14T00:12:11;45.14;43.18;47.39;;
67322;Laerm;57666;51.436;5.978;2023-06-14T00:12:45;45.01;43.01;47.05;;
67322;Laerm;57666;51.436;5.978;2023-06-14T00:12:58;45.09;43.21;47.49;;
67322;Laerm;57666;51.436;5.978;2023-06-14T00:13:51;45.07;43.02;47.09;;
67322;Laerm;57666;51.436;5.978;2023-06-14T00:14:05;45.03;43.03;47.18;;
67322;Laerm;57666;51.436;5.978;2023-06-14T00:14:23;45.03;43.09;47.28;;
67322;Laerm;57666;51.436;5.978;2023-06-14T00:14:54;45.26;43.25;47.98;;
67322;Laerm;57666;51.436;5.978;2023-06-14T00:15:05;45.56;43.46;47.35;;
67322;Laerm;57666;51.436;5.978;2023-06-14T00:15:45;45.28;43.22;48.31;;
67322;Laerm;57666;51.436;5.978;2023-06-14T00:16:09;45.22;42.80;47.71;;
67322;Laerm;57666;51.436;5.978;2023-06-14T00:16:48;45.18;42.79;47.37;;
67322;Laerm;57666;51.436;5.978;2023-06-14T00:17:36;45.31;42.64;47.47;;
67322;Laerm;57666;51.436;5.978;2023-06-14T00:18:13;45.05;42.85;46.80;;
67322;Laerm;57666;51.436;5.978;2023-06-14T00:18:40;45.35;42.86;48.12;;
67322;Laerm;57666;51.436;5.978;2023-06-14T00:18:59;44.88;42.71;47.10;;
67322;Laerm;57666;51.436;5.978;2023-06-14T00:19:18;44.87;43.18;47.00;;
67322;Laerm;57666;51.436;5.978;2023-06-14T00:19:42;44.84;42.91;46.68;;
67322;Laerm;57666;51.436;5.978;2023-06-14T00:25:17;44.99;43.10;47.81;;
67322;Laerm;57666;51.436;5.978;2023-06-14T00:25:29;45.66;43.84;47.65;;
67322;Laerm;57666;51.436;5.978;2023-06-14T00:25:43;56.89;44.32;63.51;;
67322;Laerm;57666;51.436;5.978;2023-06-14T00:26:00;61.84;59.28;65.01;;
67322;Laerm;57666;51.436;5.978;2023-06-14T00:26:14;57.15;44.42;63.48;;
67322;Laerm;57666;51.436;5.978;2023-06-14T00:26:46;45.42;43.32;49.62;;
67322;Laerm;57666;51.436;5.978;2023-06-14T00:27:22;45.16;42.96;47.73;;
67322;Laerm;57666;51.436;5.978;2023-06-14T00:27:56;45.25;43.26;47.00;;
67322;Laerm;57666;51.436;5.978;2023-06-14T00:28:09;45.30;43.26;47.57;;
67322;Laerm;57666;51.436;5.978;2023-06-14T00:28:22;45.11;42.87;47.44;;
67322;Laerm;57666;51.436;5.978;2023-06-14T00:28:42;45.50;43.25;47.89;;
67322;Laerm;57666;51.436;5.978;2023-06-14T00:29:01;45.64;43.44;47.64;;
67322;Laerm;57666;51.436;5.978;2023-06-14T00:29:28;45.30;43.28;47.22;;
67322;Laerm;57666;51.436;5.978;2023-06-14T00:29:54;45.40;43.36;47.53;;
67322;Laerm;57666;51.436;5.978;2023-06-14T00:30:05;45.35;43.41;47.18;;
67322;Laerm;57666;51.436;5.978;2023-06-14T00:30:23;45.30;43.27;47.44;;
67322;Laerm;57666;51.436;5.978;2023-06-14T00:30:49;45.33;42.97;47.12;;
67322;Laerm;57666;51.436;5.978;2023-06-14T00:31:27;45.53;43.47;53.44;;
67322;Laerm;57666;51.436;5.978;2023-06-14T00:31:39;45.29;43.51;47.00;;
67322;Laerm;57666;51.436;5.978;2023-06-14T00:31:58;45.21;43.16;48.83;;
67322;Laerm;57666;51.436;5.978;2023-06-14T00:32:34;45.17;43.18;47.41;;
67322;Laerm;57666;51.436;5.978;2023-06-14T00:32:51;44.86;43.19;46.88;;
67322;Laerm;57666;51.436;5.978;2023-06-14T00:33:07;44.89;43.29;46.60;;
67322;Laerm;57666;51.436;5.978;2023-06-14T00:33:24;44.80;43.09;46.94;;
67322;Laerm;57666;51.436;5.978;2023-06-14T00:33:46;44.82;42.96;46.61;;
67322;Laerm;57666;51.436;5.978;2023-06-14T00:34:05;45.03;43.10;46.91;;
67322;Laerm;57666;51.436;5.978;2023-06-14T00:34:16;45.02;42.86;46.90;;
67322;Laerm;57666;51.436;5.978;2023-06-14T00:34:45;44.80;42.50;46.95;;
67322;Laerm;57666;51.436;5.978;2023-06-14T00:34:58;44.81;43.09;46.92;;
67322;Laerm;57666;51.436;5.978;2023-06-14T00:35:23;44.83;42.80;46.92;;
67322;Laerm;57666;51.436;5.978;2023-06-14T00:36:02;44.87;42.82;48.68;;
67322;Laerm;57666;51.436;5.978;2023-06-14T00:36:21;45.18;43.18;47.23;;
67322;Laerm;57666;51.436;5.978;2023-06-14T00:36:43;45.30;43.38;47.40;;
67322;Laerm;57666;51.436;5.978;2023-06-14T00:37:02;44.94;42.98;47.07;;
67322;Laerm;57666;51.436;5.978;2023-06-14T00:37:49;44.97;42.82;47.26;;
67322;Laerm;57666;51.436;5.978;2023-06-14T00:38:10;45.22;43.18;47.65;;
67322;Laerm;57666;51.436;5.978;2023-06-14T00:38:37;45.04;42.56;46.90;;
67322;Laerm;57666;51.436;5.978;2023-06-14T00:38:56;45.12;43.17;46.58;;
67322;Laerm;57666;51.436;5.978;2023-06-14T00:39:12;45.03;43.16;47.27;;
67322;Laerm;57666;51.436;5.978;2023-06-14T00:39:23;45.02;43.20;46.75;;
67322;Laerm;57666;51.436;5.978;2023-06-14T00:39:37;45.07;43.14;47.70;;
67322;Laerm;57666;51.436;5.978;2023-06-14T00:39:51;45.02;43.07;46.89;;
67322;Laerm;57666;51.436;5.978;2023-06-14T00:40:09;45.00;43.04;46.92;;
67322;Laerm;57666;51.436;5.978;2023-06-14T00:40:39;44.96;42.77;47.01;;
67322;Laerm;57666;51.436;5.978;2023-06-14T00:41:04;45.02;43.15;47.51;;
67322;Laerm;57666;51.436;5.978;2023-06-14T00:41:22;45.04;43.27;47.10;;
67322;Laerm;57666;51.436;5.978;2023-06-14T00:41:40;44.80;43.18;47.19;;
67322;Laerm;57666;51.436;5.978;2023-06-14T00:42:34;44.80;42.76;46.46;;
67322;Laerm;57666;51.436;5.978;2023-06-14T00:42:48;44.86;42.60;47.34;;
67322;Laerm;57666;51.436;5.978;2023-06-14T00:43:09;44.73;42.57;46.49;;
67322;Laerm;57666;51.436;5.978;2023-06-14T00:43:28;44.90;42.59;46.73;;
67322;Laerm;57666;51.436;5.978;2023-06-14T00:43:48;45.00;42.86;46.89;;
67322;Laerm;57666;51.436;5.978;2023-06-14T00:44:09;44.70;42.92;46.89;;
67322;Laerm;57666;51.436;5.978;2023-06-14T00:44:25;45.08;43.41;47.03;;
67322;Laerm;57666;51.436;5.978;2023-06-14T00:44:38;45.08;43.16;47.38;;
67322;Laerm;57666;51.436;5.978;2023-06-14T00:44:59;45.13;42.94;47.33;;
67322;Laerm;57666;51.436;5.978;2023-06-14T00:45:33;45.25;42.96;47.34;;
67322;Laerm;57666;51.436;5.978;2023-06-14T00:45:55;44.80;42.80;46.99;;
67322;Laerm;57666;51.436;5.978;2023-06-14T00:46:08;44.97;43.10;47.50;;
67322;Laerm;57666;51.436;5.978;2023-06-14T00:46:45;44.71;42.73;47.13;;
67322;Laerm;57666;51.436;5.978;2023-06-14T00:46:58;44.84;43.15;46.97;;
67322;Laerm;57666;51.436;5.978;2023-06-14T00:47:18;44.87;42.84;46.92;;
67322;Laerm;57666;51.436;5.978;2023-06-14T00:47:35;44.78;42.90;46.76;;
67322;Laerm;57666;51.436;5.978;2023-06-14T00:47:54;44.64;42.61;46.83;;
67322;Laerm;57666;51.436;5.978;2023-06-14T00:48:14;44.72;42.88;46.71;;
67322;Laerm;57666;51.436;5.978;2023-06-14T00:48:58;44.84;42.65;46.88;;
67322;Laerm;57666;51.436;5.978;2023-06-14T00:49:15;44.58;42.75;46.89;;
67322;Laerm;57666;51.436;5.978;2023-06-14T00:49:51;44.81;42.50;47.20;;
67322;Laerm;57666;51.436;5.978;2023-06-14T00:50:24;44.95;42.79;46.86;;
67322;Laerm;57666;51.436;5.978;2023-06-14T00:50:44;45.07;42.72;47.66;;
67322;Laerm;57666;51.436;5.978;2023-06-14T00:51:07;45.31;43.39;47.94;;
67322;Laerm;57666;51.436;5.978;2023-06-14T00:51:27;62.55;45.30;68.48;;
67322;Laerm;57666;51.436;5.978;2023-06-14T00:51:47;64.21;56.57;68.30;;
67322;Laerm;57666;51.436;5.978;2023-06-14T00:52:05;49.47;43.47;66.08;;
67322;Laerm;57666;51.436;5.978;2023-06-14T00:52:42;45.29;43.27;55.37;;
67322;Laerm;57666;51.436;5.978;2023-06-14T00:53:02;44.92;42.83;46.81;;
67322;Laerm;57666;51.436;5.978;2023-06-14T00:53:24;44.85;43.09;46.89;;
67322;Laerm;57666;51.436;5.978;2023-06-14T00:53:40;44.86;43.02;46.54;;
67322;Laerm;57666;51.436;5.978;2023-06-14T00:54:00;44.93;42.44;46.97;;
67322;Laerm;57666;51.436;5.978;2023-06-14T00:54:24;45.10;42.84;47.07;;
67322;Laerm;57666;51.436;5.978;2023-06-14T00:54:47;44.86;42.24;46.82;;
67322;Laerm;57666;51.436;5.978;2023-06-14T00:55:04;45.22;43.10;47.68;;
67322;Laerm;57666;51.436;5.978;2023-06-14T00:55:19;44.77;43.03;46.58;;
67322;Laerm;57666;51.436;5.978;2023-06-14T00:55:35;44.84;42.97;47.35;;
67322;Laerm;57666;51.436;5.978;2023-06-14T00:55:50;44.93;42.91;46.82;;
67322;Laerm;57666;51.436;5.978;2023-06-14T00:56:06;45.17;43.22;47.30;;
67322;Laerm;57666;51.436;5.978;2023-06-14T00:56:21;45.44;43.31;53.48;;
67322;Laerm;57666;51.436;5.978;2023-06-14T00:56:37;45.70;43.28;53.22;;
67322;Laerm;57666;51.436;5.978;2023-06-14T00:56:49;45.70;43.62;51.56;;
67322;Laerm;57666;51.436;5.978;2023-06-14T00:57:31;45.09;42.80;49.13;;
67322;Laerm;57666;51.436;5.978;2023-06-14T00:57:42;45.35;43.41;47.37;;
67322;Laerm;57666;51.436;5.978;2023-06-14T00:58:00;45.10;43.20;47.15;;
67322;Laerm;57666;51.436;5.978;2023-06-14T00:58:13;45.13;42.91;47.13;;
67322;Laerm;57666;51.436;5.978;2023-06-14T00:58:33;45.18;42.88;48.59;;
67322;Laerm;57666;51.436;5.978;2023-06-14T01:00:06;45.00;42.70;54.63;;
67322;Laerm;57666;51.436;5.978;2023-06-14T01:00:20;45.82;43.04;53.33;;
67322;Laerm;57666;51.436;5.978;2023-06-14T01:00:54;44.80;42.90;47.15;;
67322;Laerm;57666;51.436;5.978;2023-06-14T01:01:16;45.08;43.01;47.91;;
67322;Laerm;57666;51.436;5.978;2023-06-14T01:01:27;44.80;43.04;46.52;;
67322;Laerm;57666;51.436;5.978;2023-06-14T01:01:52;45.04;42.62;47.19;;
67322;Laerm;57666;51.436;5.978;2023-06-14T01:02:09;45.13;42.88;47.47;;
67322;Laerm;57666;51.436;5.978;2023-06-14T01:02:30;44.87;42.97;48.27;;
67322;Laerm;57666;51.436;5.978;2023-06-14T01:02:50;44.98;42.91;46.92;;
67322;Laerm;57666;51.436;5.978;2023-06-14T01:03:22;45.16;43.45;47.27;;
67322;Laerm;57666;51.436;5.978;2023-06-14T01:03:38;45.22;43.14;47.37;;
67322;Laerm;57666;51.436;5.978;2023-06-14T01:03:50;45.02;43.35;47.67;;
67322;Laerm;57666;51.436;5.978;2023-06-14T01:04:04;45.15;43.45;47.31;;
67322;Laerm;57666;51.436;5.978;2023-06-14T01:04:21;45.30;43.45;47.57;;
67322;Laerm;57666;51.436;5.978;2023-06-14T01:04:32;45.13;43.32;47.36;;
67322;Laerm;57666;51.436;5.978;2023-06-14T01:05:00;45.06;42.85;47.20;;
67322;Laerm;57666;51.436;5.978;2023-06-14T01:05:16;45.11;43.02;47.30;;
67322;Laerm;57666;51.436;5.978;2023-06-14T01:05:27;45.00;43.22;46.51;;
67322;Laerm;57666;51.436;5.978;2023-06-14T01:05:39;45.34;42.95;47.20;;
67322;Laerm;57666;51.436;5.978;2023-06-14T01:05:53;45.14;43.44;47.24;;
67322;Laerm;57666;51.436;5.978;2023-06-14T01:06:13;45.29;43.10;47.15;;
67322;Laerm;57666;51.436;5.978;2023-06-14T01:11:07;45.05;42.52;48.04;;
67322;Laerm;57666;51.436;5.978;2023-06-14T01:12:24;58.51;42.67;70.47;;
67322;Laerm;57666;51.436;5.978;2023-06-14T01:14:39;45.12;42.82;47.74;;
67322;Laerm;57666;51.436;5.978;2023-06-14T01:15:17;45.34;42.96;47.90;;
67322;Laerm;57666;51.436;5.978;2023-06-14T01:15:31;44.87;42.93;46.64;;
67322;Laerm;57666;51.436;5.978;2023-06-14T01:18:43;45.35;42.75;47.99;;
67322;Laerm;57666;51.436;5.978;2023-06-14T01:19:37;45.08;43.09;47.38;;
67322;Laerm;57666;51.436;5.978;2023-06-14T01:19:53;45.04;42.49;47.18;;
67322;Laerm;57666;51.436;5.978;2023-06-14T01:20:33;44.90;42.60;47.04;;
67322;Laerm;57666;51.436;5.978;2023-06-14T01:21:19;45.21;43.01;47.39;;
67322;Laerm;57666;51.436;5.978;2023-06-14T01:21:39;45.31;42.87;47.47;;
67322;Laerm;57666;51.436;5.978;2023-06-14T01:22:07;45.25;43.33;47.35;;
67322;Laerm;57666;51.436;5.978;2023-06-14T01:23:03;45.29;42.81;47.78;;
67322;Laerm;57666;51.436;5.978;2023-06-14T01:23:23;45.03;42.97;47.31;;
67322;Laerm;57666;51.436;5.978;2023-06-14T01:23:47;44.98;43.07;47.45;;
67322;Laerm;57666;51.436;5.978;2023-06-14T01:24:15;45.10;43.21;46.80;;
67322;Laerm;57666;51.436;5.978;2023-06-14T01:24:55;63.80;43.49;71.35;;
67322;Laerm;57666;51.436;5.978;2023-06-14T01:25:41;46.70;42.99;57.52;;
67322;Laerm;57666;51.436;5.978;2023-06-14T01:26:15;45.14;43.36;47.29;;
67322;Laerm;57666;51.436;5.978;2023-06-14T01:26:30;45.16;43.33;47.49;;
67322;Laerm;57666;51.436;5.978;2023-06-14T01:27:06;45.35;42.68;50.13;;
67322;Laerm;57666;51.436;5.978;2023-06-14T01:27:37;45.13;42.73;47.85;;
67322;Laerm;57666;51.436;5.978;2023-06-14T01:28:05;44.91;42.93;47.46;;
67322;Laerm;57666;51.436;5.978;2023-06-14T01:28:34;45.44;43.24;48.64;;
67322;Laerm;57666;51.436;5.978;2023-06-14T01:28:51;45.16;43.12;47.21;;
67322;Laerm;57666;51.436;5.978;2023-06-14T01:29:18;44.99;43.04;47.20;;
67322;Laerm;57666;51.436;5.978;2023-06-14T01:29:53;45.13;43.04;48.38;;
67322;Laerm;57666;51.436;5.978;2023-06-14T01:30:20;45.08;42.61;47.28;;
67322;Laerm;57666;51.436;5.978;2023-06-14T01:31:00;45.14;43.03;48.52;;
67322;Laerm;57666;51.436;5.978;2023-06-14T01:31:41;45.44;42.95;53.74;;
67322;Laerm;57666;51.436;5.978;2023-06-14T01:31:59;44.89;42.90;46.85;;
67322;Laerm;57666;51.436;5.978;2023-06-14T01:32:38;44.91;42.92;47.70;;
67322;Laerm;57666;51.436;5.978;2023-06-14T01:33:18;45.39;43.23;50.21;;
67322;Laerm;57666;51.436;5.978;2023-06-14T01:33:32;45.11;42.76;47.71;;
67322;Laerm;57666;51.436;5.978;2023-06-14T01:33:52;45.16;43.19;47.36;;
67322;Laerm;57666;51.436;5.978;2023-06-14T01:34:10;45.34;43.01;48.01;;
67322;Laerm;57666;51.436;5.978;2023-06-14T01:34:27;57.09;43.47;67.95;;
67322;Laerm;57666;51.436;5.978;2023-06-14T01:34:47;46.91;43.45;56.13;;
67322;Laerm;57666;51.436;5.978;2023-06-14T01:35:09;60.54;44.93;68.78;;
67322;Laerm;57666;51.436;5.978;2023-06-14T01:35:29;57.02;43.85;63.66;;
67322;Laerm;57666;51.436;5.978;2023-06-14T01:36:22;45.75;42.61;50.66;;
67322;Laerm;57666;51.436;5.978;2023-06-14T01:36:41;45.08;42.96;47.65;;
67322;Laerm;57666;51.436;5.978;2023-06-14T01:37:01;45.27;42.55;47.26;;
67322;Laerm;57666;51.436;5.978;2023-06-14T01:37:52;45.15;42.78;47.92;;
67322;Laerm;57666;51.436;5.978;2023-06-14T01:38:21;45.21;43.27;46.85;;
67322;Laerm;57666;51.436;5.978;2023-06-14T01:38:45;44.98;42.78;47.49;;
67322;Laerm;57666;51.436;5.978;2023-06-14T01:39:14;45.45;42.33;49.16;;
67322;Laerm;57666;51.436;5.978;2023-06-14T01:39:30;45.17;43.22;47.35;;
67322;Laerm;57666;51.436;5.978;2023-06-14T01:39:49;45.41;42.62;48.40;;
67322;Laerm;57666;51.436;5.978;2023-06-14T01:40:15;45.87;43.85;49.79;;
67322;Laerm;57666;51.436;5.978;2023-06-14T01:40:34;44.98;42.86;47.34;;
67322;Laerm;57666;51.436;5.978;2023-06-14T01:41:00;45.16;42.64;47.92;;
67322;Laerm;57666;51.436;5.978;2023-06-14T01:41:23;45.25;42.98;47.73;;
67322;Laerm;57666;51.436;5.978;2023-06-14T01:41:43;45.22;43.15;46.93;;
67322;Laerm;57666;51.436;5.978;2023-06-14T01:42:07;45.05;42.90;47.62;;
67322;Laerm;57666;51.436;5.978;2023-06-14T01:47:00;44.96;42.63;47.09;;
67322;Laerm;57666;51.436;5.978;2023-06-14T01:47:38;45.32;43.05;47.44;;
67322;Laerm;57666;51.436;5.978;2023-06-14T01:47:59;44.98;42.99;47.50;;
67322;Laerm;57666;51.436;5.978;2023-06-14T01:48:16;45.04;42.67;47.11;;
67322;Laerm;57666;51.436;5.978;2023-06-14T01:48:31;44.51;41.87;46.58;;
67322;Laerm;57666;51.436;5.978;2023-06-14T01:48:50;44.64;42.60;46.83;;
67322;Laerm;57666;51.436;5.978;2023-06-14T01:49:06;45.20;43.19;47.36;;
67322;Laerm;57666;51.436;5.978;2023-06-14T01:49:21;45.50;43.12;48.47;;
67322;Laerm;57666;51.436;5.978;2023-06-14T01:49:38;44.95;42.87;47.98;;
67322;Laerm;57666;51.436;5.978;2023-06-14T01:49:53;46.26;43.38;50.25;;
67322;Laerm;57666;51.436;5.978;2023-06-14T01:50:11;45.13;42.56;48.74;;
67322;Laerm;57666;51.436;5.978;2023-06-14T01:50:28;45.17;42.64;47.58;;
67322;Laerm;57666;51.436;5.978;2023-06-14T01:51:08;45.32;42.52;47.97;;
67322;Laerm;57666;51.436;5.978;2023-06-14T01:51:28;45.11;43.36;47.27;;
67322;Laerm;57666;51.436;5.978;2023-06-14T01:51:51;45.16;43.02;47.50;;
67322;Laerm;57666;51.436;5.978;2023-06-14T01:52:23;45.09;42.57;47.08;;
67322;Laerm;57666;51.436;5.978;2023-06-14T01:52:36;45.27;43.01;48.27;;
67322;Laerm;57666;51.436;5.978;2023-06-14T01:53:22;44.99;42.42;47.31;;
67322;Laerm;57666;51.436;5.978;2023-06-14T01:53:35;44.70;42.78;47.27;;
67322;Laerm;57666;51.436;5.978;2023-06-14T01:53:55;44.94;43.20;47.61;;
67322;Laerm;57666;51.436;5.978;2023-06-14T01:54:16;44.99;43.16;47.05;;
67322;Laerm;57666;51.436;5.978;2023-06-14T01:54:35;45.10;42.58;47.50;;
67322;Laerm;57666;51.436;5.978;2023-06-14T01:55:09;45.01;42.72;47.17;;
67322;Laerm;57666;51.436;5.978;2023-06-14T01:55:21;44.78;42.89;46.59;;
67322;Laerm;57666;51.436;5.978;2023-06-14T01:55:37;45.18;43.13;46.96;;
67322;Laerm;57666;51.436;5.978;2023-06-14T01:55:48;45.20;42.96;47.20;;
67322;Laerm;57666;51.436;5.978;2023-06-14T01:56:00;44.98;43.11;46.64;;
67322;Laerm;57666;51.436;5.978;2023-06-14T01:56:11;44.91;42.53;46.51;;
67322;Laerm;57666;51.436;5.978;2023-06-14T01:56:31;45.41;43.48;47.46;;
67322;Laerm;57666;51.436;5.978;2023-06-14T01:57:13;44.93;42.54;47.12;;
67322;Laerm;57666;51.436;5.978;2023-06-14T01:57:33;45.27;42.90;47.37;;
67322;Laerm;57666;51.436;5.978;2023-06-14T01:57:48;44.97;43.18;49.29;;
67322;Laerm;57666;51.436;5.978;2023-06-14T01:58:18;45.17;42.60;48.15;;
67322;Laerm;57666;51.436;5.978;2023-06-14T01:58:58;45.11;42.57;47.50;;
67322;Laerm;57666;51.436;5.978;2023-06-14T01:59:11;45.45;43.44;47.94;;
67322;Laerm;57666;51.436;5.978;2023-06-14T01:59:33;45.29;42.97;51.45;;
67322;Laerm;57666;51.436;5.978;2023-06-14T01:59:53;45.74;43.07;48.99;;
67322;Laerm;57666;51.436;5.978;2023-06-14T02:00:14;46.53;42.79;54.37;;
67322;Laerm;57666;51.436;5.978;2023-06-14T02:00:31;45.74;43.08;54.41;;
67322;Laerm;57666;51.436;5.978;2023-06-14T02:00:42;45.10;42.69;49.39;;
67322;Laerm;57666;51.436;5.978;2023-06-14T02:01:15;46.07;42.75;52.86;;
67322;Laerm;57666;51.436;5.978;2023-06-14T02:01:34;44.99;42.11;51.47;;
67322;Laerm;57666;51.436;5.978;2023-06-14T02:01:52;45.21;43.15;47.17;;
67322;Laerm;57666;51.436;5.978;2023-06-14T02:02:11;45.14;43.26;46.77;;
67322;Laerm;57666;51.436;5.978;2023-06-14T02:02:24;44.87;43.17;47.31;;
67322;Laerm;57666;51.436;5.978;2023-06-14T02:02:40;45.24;43.21;46.92;;
67322;Laerm;57666;51.436;5.978;2023-06-14T02:02:54;44.71;42.39;47.00;;
67322;Laerm;57666;51.436;5.978;2023-06-14T02:03:10;45.11;42.98;47.18;;
67322;Laerm;57666;51.436;5.978;2023-06-14T02:03:27;44.89;43.07;47.00;;
67322;Laerm;57666;51.436;5.978;2023-06-14T02:03:41;45.03;43.13;47.51;;
67322;Laerm;57666;51.436;5.978;2023-06-14T02:03:52;44.91;42.85;47.72;;
67322;Laerm;57666;51.436;5.978;2023-06-14T02:04:07;44.91;42.72;47.04;;
67322;Laerm;57666;51.436;5.978;2023-06-14T02:04:36;45.23;42.98;48.28;;
67322;Laerm;57666;51.436;5.978;2023-06-14T02:04:50;44.92;43.09;46.79;;
67322;Laerm;57666;51.436;5.978;2023-06-14T02:05:06;45.12;42.88;46.91;;
67322;Laerm;57666;51.436;5.978;2023-06-14T02:05:21;44.80;42.86;46.85;;
67322;Laerm;57666;51.436;5.978;2023-06-14T02:05:31;45.20;43.20;47.19;;
67322;Laerm;57666;51.436;5.978;2023-06-14T02:05:42;44.87;42.65;47.36;;
67322;Laerm;57666;51.436;5.978;2023-06-14T02:05:55;44.72;43.03;47.18;;
67322;Laerm;57666;51.436;5.978;2023-06-14T02:06:08;45.04;43.03;47.41;;
67322;Laerm;57666;51.436;5.978;2023-06-14T02:06:20;44.87;43.00;46.68;;
67322;Laerm;57666;51.436;5.978;2023-06-14T02:06:39;45.26;43.18;48.26;;
67322;Laerm;57666;51.436;5.978;2023-06-14T02:07:17;45.50;42.20;50.61;;
67322;Laerm;57666;51.436;5.978;2023-06-14T02:07:34;45.09;43.29;47.07;;
67322;Laerm;57666;51.436;5.978;2023-06-14T02:07:50;44.77;42.83;46.83;;
67322;Laerm;57666;51.436;5.978;2023-06-14T02:08:04;44.61;42.34;46.50;;
67322;Laerm;57666;51.436;5.978;2023-06-14T02:08:20;45.02;42.86;46.96;;
67322;Laerm;57666;51.436;5.978;2023-06-14T02:08:46;44.86;42.55;47.10;;
67322;Laerm;57666;51.436;5.978;2023-06-14T02:09:06;45.31;43.23;47.62;;
67322;Laerm;57666;51.436;5.978;2023-06-14T02:09:17;45.12;42.95;46.83;;
67322;Laerm;57666;51.436;5.978;2023-06-14T02:09:30;45.04;43.02;46.83;;
67322;Laerm;57666;51.436;5.978;2023-06-14T02:09:46;45.13;42.99;46.79;;
67322;Laerm;57666;51.436;5.978;2023-06-14T02:09:57;45.24;43.48;47.48;;
67322;Laerm;57666;51.436;5.978;2023-06-14T02:10:10;45.05;43.24;46.83;;
67322;Laerm;57666;51.436;5.978;2023-06-14T02:10:27;44.94;42.92;46.80;;
67322;Laerm;57666;51.436;5.978;2023-06-14T02:11:04;45.63;43.26;50.44;;
67322;Laerm;57666;51.436;5.978;2023-06-14T02:11:17;63.60;46.10;71.93;;
67322;Laerm;57666;51.436;5.978;2023-06-14T02:11:33;63.20;56.32;70.67;;
67322;Laerm;57666;51.436;5.978;2023-06-14T02:11:49;49.69;43.46;59.60;;
67322;Laerm;57666;51.436;5.978;2023-06-14T02:12:22;45.47;43.43;49.14;;
67322;Laerm;57666;51.436;5.978;2023-06-14T02:12:33;45.68;43.15;52.39;;
67322;Laerm;57666;51.436;5.978;2023-06-14T02:12:43;46.22;43.50;56.53;;
67322;Laerm;57666;51.436;5.978;2023-06-14T02:12:55;46.73;42.76;56.09;;
67322;Laerm;57666;51.436;5.978;2023-06-14T02:13:05;46.27;41.77;56.70;;
67322;Laerm;57666;51.436;5.978;2023-06-14T02:13:16;46.21;43.63;54.09;;
67322;Laerm;57666;51.436;5.978;2023-06-14T02:13:41;45.13;42.73;49.30;;
67322;Laerm;57666;51.436;5.978;2023-06-14T02:13:52;45.24;43.55;47.46;;
67322;Laerm;57666;51.436;5.978;2023-06-14T02:14:05;45.30;43.45;46.82;;
67322;Laerm;57666;51.436;5.978;2023-06-14T02:14:26;45.20;42.81;47.91;;
67322;Laerm;57666;51.436;5.978;2023-06-14T02:14:38;45.73;43.99;48.71;;
67322;Laerm;57666;51.436;5.978;2023-06-14T02:14:50;45.19;42.56;48.32;;
67322;Laerm;57666;51.436;5.978;2023-06-14T02:15:11;45.54;42.32;52.66;;
67322;Laerm;57666;51.436;5.978;2023-06-14T02:15:52;45.47;43.07;51.93;;
67322;Laerm;57666;51.436;5.978;2023-06-14T02:16:10;46.43;42.77;52.31;;
67322;Laerm;57666;51.436;5.978;2023-06-14T02:20:25;48.89;43.28;62.66;;
67322;Laerm;57666;51.436;5.978;2023-06-14T02:21:17;49.48;44.06;59.17;;
67322;Laerm;57666;51.436;5.978;2023-06-14T02:21:39;47.76;43.11;59.56;;
67322;Laerm;57666;51.436;5.978;2023-06-14T02:21:50;47.16;42.93;54.57;;
67322;Laerm;57666;51.436;5.978;2023-06-14T02:22:16;47.46;43.19;53.24;;
67322;Laerm;57666;51.436;5.978;2023-06-14T02:22:32;48.16;44.15;55.31;;
67322;Laerm;57666;51.436;5.978;2023-06-14T02:23:26;48.00;43.02;54.71;;
67322;Laerm;57666;51.436;5.978;2023-06-14T02:24:10;47.91;43.48;54.09;;
67322;Laerm;57666;51.436;5.978;2023-06-14T02:24:43;48.19;44.13;55.22;;
67322;Laerm;57666;51.436;5.978;2023-06-14T02:25:01;48.01;43.54;54.53;;
67322;Laerm;57666;51.436;5.978;2023-06-14T02:25:19;48.36;44.16;55.76;;
67322;Laerm;57666;51.436;5.978;2023-06-14T02:25:41;47.55;43.69;54.84;;
67322;Laerm;57666;51.436;5.978;2023-06-14T02:26:06;47.43;42.47;53.90;;
67322;Laerm;57666;51.436;5.978;2023-06-14T02:26:41;47.62;43.22;54.80;;
67322;Laerm;57666;51.436;5.978;2023-06-14T02:27:15;48.36;43.61;54.19;;
67322;Laerm;57666;51.436;5.978;2023-06-14T02:27:29;47.38;43.80;53.49;;
67322;Laerm;57666;51.436;5.978;2023-06-14T02:28:04;47.40;42.68;53.78;;
67322;Laerm;57666;51.436;5.978;2023-06-14T02:28:50;47.29;43.41;53.49;;
67322;Laerm;57666;51.436;5.978;2023-06-14T02:29:36;47.54;43.47;53.66;;
67322;Laerm;57666;51.436;5.978;2023-06-14T02:29:51;47.41;43.73;52.41;;
67322;Laerm;57666;51.436;5.978;2023-06-14T02:30:08;47.51;43.40;52.93;;
67322;Laerm;57666;51.436;5.978;2023-06-14T02:30:33;47.20;43.71;54.26;;
67322;Laerm;57666;51.436;5.978;2023-06-14T02:30:52;46.85;43.89;54.74;;
67322;Laerm;57666;51.436;5.978;2023-06-14T02:31:26;47.19;43.01;54.80;;
67322;Laerm;57666;51.436;5.978;2023-06-14T02:31:46;50.13;43.82;62.30;;
67322;Laerm;57666;51.436;5.978;2023-06-14T02:32:04;47.05;44.06;51.52;;
67322;Laerm;57666;51.436;5.978;2023-06-14T02:32:20;47.67;43.49;53.70;;
67322;Laerm;57666;51.436;5.978;2023-06-14T02:32:38;59.43;44.80;69.46;;
67322;Laerm;57666;51.436;5.978;2023-06-14T02:33:14;59.41;45.04;68.41;;
67322;Laerm;57666;51.436;5.978;2023-06-14T02:34:17;49.72;43.97;63.98;;
67322;Laerm;57666;51.436;5.978;2023-06-14T02:34:41;47.63;44.02;52.84;;
67322;Laerm;57666;51.436;5.978;2023-06-14T02:35:05;47.28;43.98;53.09;;
67322;Laerm;57666;51.436;5.978;2023-06-14T02:35:31;47.45;44.04;52.30;;
67322;Laerm;57666;51.436;5.978;2023-06-14T02:36:03;47.12;43.02;55.46;;